首页
METAR-TAF:

METAR-TAF

机场 :

巴黎夏尔·戴高乐机场

巴黎戴高乐, 法国

纬度: 49-01N, 经度: 002-32E, 海拔: 118米

当前天气观测

该预报发布于21分钟前的10:30 UTC
风速9节,风向北转东北,在东转东北之间变化
温度 22°C
湿度 43%
气压 1035 hPa
能见度10公里或以上
1500米以下无云,无积雨云

METAR: LFPG 261030Z AUTO 03009KT 360V060 CAVOK 22/09 Q1035 NOSIG

时间: 12:51 (10:51 UTC)

预报

该预报发布于5小时和51分钟前的05:00 UTC
预报有效从26日的 06点(UTC)到 27日的 12点(UTC)
风速8节,风向北转东北
能见度10公里或以上
1500米以下无云,无积雨云

TAF: LFPG 260500Z 2606/2712 03008KT CAVOK TX26/2615Z TN12/2704Z

超过4000个机场的气象观测和天气预报(METAR&TAF报告)。

可查询的气象台以黄色和红色小点在地图上表示。

将鼠标移到小点上方,可查看气象台名称。

然后点击查看天气观测和预报。

如需切换地图:点击带黑十字的绿色按钮放大地图;点击带横线的绿色按钮缩小地图;或者点击绿色箭头查看邻近地区的地图。


METAR-TAF: